Time;durP1;ratioP1;P1;durP2;ratioP2;P2;SDS_P1;SDS_P2;PMS_P1;PMS_P2;Temp;Humidity;BMP_temperature;BMP_pressure;BME280_temperature;BME280_humidity;BME280_pressure;Samples;Min_cycle;Max_cycle;Signal;HPM_P1;HPM_P2
2021/06/24 00:01:57;;;;;;;;;;;;;;;27.22;52.89;99727.09;5114079;28;19947;-49
2021/06/24 00:04:22;;;;;;;;;;;;;;;27.94;51.30;99724.31;5095418;28;19919;-50
2021/06/24 00:06:47;;;;;;;;;;;;;;;27.49;51.72;99715.19;5113531;28;20057;-50
2021/06/24 00:09:12;;;;;;;;;;;;;;;27.13;52.58;99720.81;5113583;28;19912;-51
2021/06/24 00:11:38;;;;;;;;;;;;;;;27.18;52.61;99725.31;5113822;28;20390;-49
2021/06/24 00:14:03;;;;;;;;;;;;;;;27.05;53.07;99724.28;5113701;28;20371;-50
2021/06/24 00:16:28;;;;;;;;;;;;;;;27.36;52.08;99731.69;5113638;28;19923;-51
2021/06/24 00:18:54;;;;;;;;;;;;;;;27.41;52.27;99724.13;5113728;28;19916;-50
2021/06/24 00:21:19;;;;;;;;;;;;;;;27.04;52.07;99726.22;5113531;28;20006;-49
2021/06/24 00:23:45;;;;;;;;;;;;;;;26.91;52.42;99716.19;5113548;28;19912;-48
2021/06/24 00:26:10;;;;;;;;;;;;;;;27.03;51.85;99713.69;5113648;28;19916;-50
2021/06/24 00:28:35;;;;;;;;;;;;;;;26.94;52.12;99712.84;5113381;28;20391;-50
2021/06/24 00:31:00;;;;;;;;;;;;;;;27.39;50.99;99707.25;5095390;28;19919;-49
2021/06/24 00:33:26;;;;;;;;;;;;;;;27.89;49.84;99697.91;5113188;28;20330;-48
2021/06/24 00:35:51;;;;;;;;;;;;;;;27.43;51.13;99693.78;5113261;28;20327;-46
2021/06/24 00:38:16;;;;;;;;;;;;;;;27.14;52.10;99684.19;5113252;28;20426;-48
2021/06/24 00:40:42;;;;;;;;;;;;;;;27.38;51.30;99675.63;5113303;28;19931;-49
2021/06/24 00:43:08;;;;;;;;;;;;;;;27.46;50.85;99684.97;5113154;28;20394;-49
2021/06/24 00:45:34;;;;;;;;;;;;;;;27.44;50.82;99690.72;5113021;28;19951;-49
2021/06/24 00:47:59;;;;;;;;;;;;;;;28.21;49.34;99693.09;5113051;28;19966;-48
2021/06/24 00:50:25;;;;;;;;;;;;;;;27.70;50.53;99692.69;5112942;28;19964;-48
2021/06/24 00:52:50;;;;;;;;;;;;;;;27.47;51.37;99694.75;5112911;28;20419;-49
2021/06/24 00:55:15;;;;;;;;;;;;;;;27.27;52.53;99696.16;5112775;28;20395;-48
2021/06/24 00:57:40;;;;;;;;;;;;;;;27.22;52.77;99693.53;5112822;28;19912;-48
2021/06/24 01:00:07;;;;;;;;;;;;;;;27.43;51.54;99691.03;5112821;28;19935;-48
2021/06/24 01:02:32;;;;;;;;;;;;;;;28.21;49.25;99693.09;5112825;28;19912;-50
2021/06/24 01:04:57;;;;;;;;;;;;;;;28.01;49.68;99697.28;5094238;28;20068;-48
2021/06/24 01:07:23;;;;;;;;;;;;;;;27.65;50.30;99701.06;5112555;28;20011;-49
2021/06/24 01:09:49;;;;;;;;;;;;;;;27.58;50.20;99709.72;5112766;28;20010;-48
2021/06/24 01:12:14;;;;;;;;;;;;;;;27.83;49.94;99707.34;5112521;28;19922;-48
2021/06/24 01:14:39;;;;;;;;;;;;;;;28.04;49.67;99707.56;5111879;28;19922;-49
2021/06/24 01:17:05;;;;;;;;;;;;;;;28.43;48.60;99706.59;5112224;28;19928;-50
2021/06/24 01:19:31;;;;;;;;;;;;;;;28.45;48.41;99709.81;5112232;28;20353;-52
2021/06/24 01:21:56;;;;;;;;;;;;;;;28.13;49.24;99702.13;5112245;28;19916;-49
2021/06/24 01:24:22;;;;;;;;;;;;;;;27.96;49.63;99700.97;5112393;28;19919;-51
2021/06/24 01:26:47;;;;;;;;;;;;;;;27.80;50.07;99706.06;5112199;28;19934;-48
2021/06/24 01:29:12;;;;;;;;;;;;;;;27.76;50.27;99707.84;5112056;28;19912;-49
2021/06/24 01:31:38;;;;;;;;;;;;;;;27.76;50.30;99713.31;5112066;28;19922;-48
2021/06/24 01:34:06;;;;;;;;;;;;;;;28.40;48.45;99714.63;5112079;28;19920;-47
2021/06/24 01:36:32;;;;;;;;;;;;;;;27.75;50.49;99708.97;5112040;28;20336;-48
2021/06/24 01:38:57;;;;;;;;;;;;;;;27.55;51.07;99712.28;5112112;28;19961;-47
2021/06/24 01:41:22;;;;;;;;;;;;;;;27.45;51.53;99710.66;5112156;28;19970;-48
2021/06/24 01:43:48;;;;;;;;;;;;;;;27.49;51.62;99708.91;5111789;28;20332;-47
2021/06/24 01:46:13;;;;;;;;;;;;;;;27.48;51.54;99708.09;5111760;28;19919;-48
2021/06/24 01:48:39;;;;;;;;;;;;;;;27.69;51.07;99713.78;5111892;28;19923;-48
2021/06/24 01:51:05;;;;;;;;;;;;;;;27.29;52.48;99718.50;5111364;28;19915;-49
2021/06/24 01:53:30;;;;;;;;;;;;;;;27.28;52.45;99712.22;5111847;28;19915;-49
2021/06/24 01:55:55;;;;;;;;;;;;;;;27.39;52.29;99709.19;5111665;28;19935;-49
2021/06/24 01:58:22;;;;;;;;;;;;;;;27.42;52.14;99708.56;5111772;28;19919;-48
2021/06/24 02:00:47;;;;;;;;;;;;;;;27.34;52.02;99709.34;5111568;28;20039;-48
2021/06/24 02:03:13;;;;;;;;;;;;;;;27.77;50.64;99711.38;5111545;28;20403;-49
2021/06/24 02:05:38;;;;;;;;;;;;;;;27.10;52.45;99718.69;5111297;28;19943;-51
2021/06/24 02:08:04;;;;;;;;;;;;;;;26.81;53.26;99711.81;5111479;28;20405;-49
2021/06/24 02:10:29;;;;;;;;;;;;;;;26.85;53.17;99712.78;5115372;27;19951;-51
2021/06/24 02:12:55;;;;;;;;;;;;;;;27.03;52.46;99726.53;5131976;27;19915;-51
2021/06/24 02:15:20;;;;;;;;;;;;;;;27.09;52.34;99728.81;5131863;27;19911;-51
2021/06/24 02:17:45;;;;;;;;;;;;;;;28.01;49.99;99733.63;5131489;27;19924;-49
2021/06/24 02:20:11;;;;;;;;;;;;;;;27.30;51.96;99736.47;5131849;27;19912;-51
2021/06/24 02:22:37;;;;;;;;;;;;;;;26.91;53.01;99740.78;5111690;27;20283;-49
2021/06/24 02:25:03;;;;;;;;;;;;;;;26.85;53.30;99733.84;5111109;28;20006;-50
2021/06/24 02:27:28;;;;;;;;;;;;;;;26.71;53.95;99742.09;5111245;28;19912;-50
2021/06/24 02:29:53;;;;;;;;;;;;;;;26.83;53.65;99736.88;5111240;28;19927;-47
2021/06/24 02:32:19;;;;;;;;;;;;;;;27.30;52.94;99726.38;5111005;28;19911;-47
2021/06/24 02:34:44;;;;;;;;;;;;;;;26.27;56.02;99722.66;5111040;28;20002;-51
2021/06/24 02:37:10;;;;;;;;;;;;;;;26.25;56.35;99724.06;5110820;28;19912;-49
2021/06/24 02:39:35;;;;;;;;;;;;;;;26.32;56.38;99724.44;5110833;28;19923;-47
2021/06/24 02:42:00;;;;;;;;;;;;;;;26.40;56.21;99726.44;5110816;28;19919;-47
2021/06/24 02:44:26;;;;;;;;;;;;;;;27.07;54.26;99735.69;5110677;28;19919;-49
2021/06/24 02:46:51;;;;;;;;;;;;;;;26.62;55.51;99731.13;5110760;28;20014;-50
2021/06/24 02:49:16;;;;;;;;;;;;;;;26.21;56.99;99734.78;5110817;28;19912;-49
2021/06/24 02:51:42;;;;;;;;;;;;;;;26.05;57.78;99736.25;5110808;28;19918;-50
2021/06/24 02:54:07;;;;;;;;;;;;;;;26.23;57.11;99734.47;5110608;28;20345;-48
2021/06/24 02:56:41;;;;;;;;;;;;;;;26.47;55.99;99732.28;5110486;28;19919;-49
2021/06/24 02:59:07;;;;;;;;;;;;;;;27.30;53.20;99737.31;5110623;28;20365;-49
2021/06/24 03:01:32;;;;;;;;;;;;;;;26.28;56.38;99734.38;5110468;28;19920;-49
2021/06/24 03:03:57;;;;;;;;;;;;;;;26.10;57.37;99728.78;5110367;28;19915;-48
2021/06/24 03:06:23;;;;;;;;;;;;;;;26.10;57.79;99726.06;5110314;28;20447;-51
2021/06/24 03:08:48;;;;;;;;;;;;;;;26.17;56.90;99724.81;5110621;28;20340;-51
2021/06/24 03:11:15;;;;;;;;;;;;;;;26.32;56.20;99721.72;5110581;28;20318;-51
2021/06/24 03:13:40;;;;;;;;;;;;;;;27.18;54.13;99719.84;5110301;28;19916;-49
2021/06/24 03:16:06;;;;;;;;;;;;;;;26.19;56.33;99714.41;5110305;28;20006;-48
2021/06/24 03:18:31;;;;;;;;;;;;;;;26.02;57.19;99712.34;5109410;28;19989;-48
2021/06/24 03:20:56;;;;;;;;;;;;;;;26.19;56.90;99706.22;5109451;28;20052;-48
2021/06/24 03:23:22;;;;;;;;;;;;;;;26.42;56.03;99705.09;5111579;28;20343;-51
2021/06/24 03:25:47;;;;;;;;;;;;;;;27.07;54.04;99711.94;5113291;28;19944;-50
2021/06/24 03:28:13;;;;;;;;;;;;;;;26.92;54.63;99718.63;5095462;28;19912;-46
2021/06/24 03:30:38;;;;;;;;;;;;;;;26.59;55.62;99723.53;5113147;28;19985;-48
2021/06/24 03:33:03;;;;;;;;;;;;;;;26.72;55.40;99730.84;5112657;28;19911;-51
2021/06/24 03:35:29;;;;;;;;;;;;;;;26.76;55.50;99731.03;5112559;28;19912;-50
2021/06/24 03:37:54;;;;;;;;;;;;;;;27.06;54.84;99734.09;5111544;28;19915;-47
2021/06/24 03:40:20;;;;;;;;;;;;;;;27.75;52.98;99739.03;5111125;28;19911;-49
2021/06/24 03:42:45;;;;;;;;;;;;;;;27.22;54.82;99739.94;5112040;28;19915;-51
2021/06/24 03:45:11;;;;;;;;;;;;;;;26.78;56.23;99737.00;5112274;28;19924;-47
2021/06/24 03:47:36;;;;;;;;;;;;;;;26.85;56.59;99731.09;5113366;28;20374;-48
2021/06/24 03:50:01;;;;;;;;;;;;;;;27.19;55.55;99724.19;5113350;28;19911;-49
2021/06/24 03:52:26;;;;;;;;;;;;;;;27.68;54.06;99723.09;5113288;28;20329;-48
2021/06/24 03:54:52;;;;;;;;;;;;;;;27.53;54.04;99723.56;5112985;28;19919;-50
2021/06/24 03:57:17;;;;;;;;;;;;;;;27.27;54.91;99718.78;5113336;28;19912;-50
2021/06/24 03:59:42;;;;;;;;;;;;;;;27.41;54.88;99721.41;5112964;28;20006;-48
2021/06/24 04:02:07;;;;;;;;;;;;;;;27.59;54.54;99725.00;5112777;28;19912;-51
2021/06/24 04:04:33;;;;;;;;;;;;;;;28.05;53.28;99720.94;5112945;28;19939;-52
2021/06/24 04:06:58;;;;;;;;;;;;;;;28.84;51.48;99732.66;5112940;28;19939;-48
2021/06/24 04:09:23;;;;;;;;;;;;;;;28.63;51.46;99729.75;5112755;28;19912;-49
2021/06/24 04:11:49;;;;;;;;;;;;;;;28.52;52.06;99733.16;5113099;28;20021;-48
2021/06/24 04:14:14;;;;;;;;;;;;;;;28.67;51.94;99732.66;5112727;28;19912;-50
2021/06/24 04:16:39;;;;;;;;;;;;;;;28.95;51.16;99732.28;5112406;28;20014;-48
2021/06/24 04:19:05;;;;;;;;;;;;;;;29.35;50.13;99727.31;5110617;28;19916;-49
2021/06/24 04:21:30;;;;;;;;;;;;;;;29.95;48.22;99721.81;5101106;28;20008;-50
2021/06/24 04:23:55;;;;;;;;;;;;;;;29.30;49.30;99724.78;5111346;28;19916;-49
2021/06/24 04:26:22;;;;;;;;;;;;;;;29.17;49.70;99720.31;5111884;28;19962;-48
2021/06/24 04:28:47;;;;;;;;;;;;;;;29.25;49.45;99724.94;5112040;28;19912;-48
2021/06/24 04:31:12;;;;;;;;;;;;;;;29.46;49.17;99724.22;5111720;28;19930;-49
2021/06/24 04:33:37;;;;;;;;;;;;;;;29.96;48.19;99713.25;5110475;28;19915;-50
2021/06/24 04:36:03;;;;;;;;;;;;;;;30.78;46.14;99704.44;5110866;28;19959;-48
2021/06/24 04:38:28;;;;;;;;;;;;;;;31.24;45.19;99706.38;5111429;28;19919;-49
2021/06/24 04:40:54;;;;;;;;;;;;;;;31.02;44.59;99711.16;5111172;28;19911;-48
2021/06/24 04:43:19;;;;;;;;;;;;;;;30.82;45.51;99706.53;5110776;28;19930;-48
2021/06/24 04:45:44;;;;;;;;;;;;;;;31.05;44.48;99710.47;5092393;28;19974;-51
2021/06/24 04:48:10;;;;;;;;;;;;;;;31.29;43.52;99708.91;5110918;28;20033;-47
2021/06/24 04:50:36;;;;;;;;;;;;;;;31.58;42.63;99705.13;5111048;28;19937;-48
2021/06/24 04:53:02;;;;;;;;;;;;;;;32.53;41.19;99701.97;5111020;28;19911;-48
2021/06/24 04:55:27;;;;;;;;;;;;;;;32.25;40.87;99704.75;5110691;28;19997;-48
2021/06/24 04:57:52;;;;;;;;;;;;;;;31.70;41.21;99701.53;5110755;28;20379;-48
2021/06/24 05:00:18;;;;;;;;;;;;;;;31.93;40.95;99708.16;5110400;28;19919;-50
2021/06/24 05:02:43;;;;;;;;;;;;;;;32.66;39.55;99725.56;5110652;28;19922;-48
2021/06/24 05:05:08;;;;;;;;;;;;;;;33.03;38.57;99725.34;5110761;28;20244;-49
2021/06/24 05:07:34;;;;;;;;;;;;;;;34.09;36.51;99730.97;5110570;28;19930;-47
2021/06/24 05:10:00;;;;;;;;;;;;;;;33.95;36.51;99738.16;5110463;28;19943;-47
2021/06/24 05:12:26;;;;;;;;;;;;;;;33.67;37.01;99739.13;5110133;28;19923;-50
2021/06/24 05:14:52;;;;;;;;;;;;;;;33.68;36.95;99741.53;5110293;28;19920;-47
2021/06/24 05:17:17;;;;;;;;;;;;;;;33.84;37.37;99749.75;5043788;28;1873251;-46
2021/06/24 05:19:42;;;;;;;;;;;;;;;34.10;36.65;99751.13;5111433;28;19988;-48
2021/06/24 05:22:08;;;;;;;;;;;;;;;34.96;35.66;99741.75;5111458;28;20330;-47
2021/06/24 05:24:34;;;;;;;;;;;;;;;34.67;35.62;99743.19;5111542;28;19974;-47
2021/06/24 05:26:59;;;;;;;;;;;;;;;34.59;35.77;99742.22;5111255;28;20362;-50
2021/06/24 05:29:24;;;;;;;;;;;;;;;35.05;35.00;99745.09;5111465;28;20049;-48
2021/06/24 05:31:50;;;;;;;;;;;;;;;35.59;34.45;99747.94;5111166;28;19919;-50
2021/06/24 05:34:16;;;;;;;;;;;;;;;36.15;33.22;99741.59;5093225;28;19915;-48
2021/06/24 05:36:41;;;;;;;;;;;;;;;36.12;33.31;99744.31;5112433;28;19912;-48
2021/06/24 05:39:06;;;;;;;;;;;;;;;35.70;34.54;99737.84;5112069;28;19995;-48
2021/06/24 05:41:32;;;;;;;;;;;;;;;35.97;33.16;99741.38;5112103;28;20281;-51
2021/06/24 05:43:57;;;;;;;;;;;;;;;36.14;33.28;99740.00;5112110;28;19967;-48
2021/06/24 05:46:22;;;;;;;;;;;;;;;36.50;32.66;99739.63;5111266;28;19922;-50
2021/06/24 05:48:51;;;;;;;;;;;;;;;36.86;32.08;99740.03;5112178;28;19930;-50
2021/06/24 05:51:16;;;;;;;;;;;;;;;36.65;32.30;99741.41;5111765;28;20263;-49
2021/06/24 05:53:42;;;;;;;;;;;;;;;36.49;32.46;99736.06;5111804;28;19928;-47
2021/06/24 05:56:07;;;;;;;;;;;;;;;36.99;31.36;99738.56;5111931;28;20414;-49
2021/06/24 05:58:32;;;;;;;;;;;;;;;37.28;30.09;99741.59;5111949;28;19973;-47
2021/06/24 06:00:58;;;;;;;;;;;;;;;37.46;29.95;99741.75;5111978;28;19934;-48
2021/06/24 06:03:24;;;;;;;;;;;;;;;37.10;30.86;99738.66;5112123;28;20014;-48
2021/06/24 06:05:49;;;;;;;;;;;;;;;37.28;30.70;99738.81;5111971;28;19969;-48
2021/06/24 06:08:15;;;;;;;;;;;;;;;37.53;30.83;99744.56;5112032;28;20316;-49
2021/06/24 06:10:41;;;;;;;;;;;;;;;38.02;29.72;99743.25;5111073;28;20027;-48
2021/06/24 06:13:06;;;;;;;;;;;;;;;37.61;30.83;99737.13;5111451;28;20402;-51
2021/06/24 06:15:38;;;;;;;;;;;;;;;37.58;30.67;99733.09;5111535;28;20436;-50
2021/06/24 06:18:13;;;;;;;;;;;;;;;38.31;29.24;99741.44;5111210;28;19923;-48
2021/06/24 06:20:39;;;;;;;;;;;;;;;38.58;28.91;99740.34;5111541;28;19968;-50
2021/06/24 06:23:04;;;;;;;;;;;;;;;38.49;29.18;99743.47;5111004;28;20399;-49
2021/06/24 06:25:29;;;;;;;;;;;;;;;37.97;29.69;99729.78;5111659;28;19916;-49
2021/06/24 06:27:55;;;;;;;;;;;;;;;38.03;29.76;99741.28;5111794;28;19916;-49
2021/06/24 06:30:20;;;;;;;;;;;;;;;38.42;29.26;99743.44;5111162;28;20371;-51
2021/06/24 06:32:46;;;;;;;;;;;;;;;38.58;28.60;99741.13;5111609;28;20006;-50
2021/06/24 06:35:11;;;;;;;;;;;;;;;38.96;28.08;99738.00;5111234;28;19912;-47
2021/06/24 06:37:36;;;;;;;;;;;;;;;38.59;28.34;99750.25;5111393;28;19912;-48
2021/06/24 06:40:02;;;;;;;;;;;;;;;38.31;29.00;99749.78;5111342;28;19912;-52
2021/06/24 06:42:27;;;;;;;;;;;;;;;38.66;28.07;99748.28;5111453;28;20258;-48
2021/06/24 06:44:53;;;;;;;;;;;;;;;38.75;28.59;99736.81;5111245;28;20314;-48
2021/06/24 06:47:18;;;;;;;;;;;;;;;39.69;26.86;99737.56;5111236;28;20010;-49
2021/06/24 06:49:43;;;;;;;;;;;;;;;39.42;27.37;99732.44;5111554;28;19912;-48
2021/06/24 06:52:09;;;;;;;;;;;;;;;39.79;26.83;99747.09;5110803;28;19911;-49
2021/06/24 06:54:34;;;;;;;;;;;;;;;39.78;27.16;99751.88;5110792;28;19984;-50
2021/06/24 06:56:59;;;;;;;;;;;;;;;39.98;27.29;99751.44;5110623;28;19919;-48
2021/06/24 06:59:25;;;;;;;;;;;;;;;40.71;26.11;99753.47;5110755;28;19994;-48
2021/06/24 07:01:50;;;;;;;;;;;;;;;40.61;25.91;99757.13;5111378;28;19935;-51
2021/06/24 07:04:15;;;;;;;;;;;;;;;40.52;25.63;99749.22;5111514;28;20295;-50
2021/06/24 07:06:42;;;;;;;;;;;;;;;40.25;25.94;99740.56;5111108;28;19951;-49
2021/06/24 07:09:07;;;;;;;;;;;;;;;39.32;27.18;99751.91;5092489;28;19912;-48
2021/06/24 07:11:33;;;;;;;;;;;;;;;39.20;27.46;99761.47;5124551;28;19922;-51
2021/06/24 07:13:58;;;;;;;;;;;;;;;39.25;27.55;99761.88;5131394;27;19941;-50
2021/06/24 07:16:25;;;;;;;;;;;;;;;39.50;27.20;99766.66;5131358;28;20002;-47
2021/06/24 07:18:50;;;;;;;;;;;;;;;40.11;25.92;99769.28;5131401;28;19945;-50
2021/06/24 07:21:15;;;;;;;;;;;;;;;40.87;25.31;99768.94;5122388;28;20272;-49
2021/06/24 07:23:40;;;;;;;;;;;;;;;41.55;24.76;99763.59;5110800;28;19961;-48
2021/06/24 07:26:06;;;;;;;;;;;;;;;41.34;24.88;99756.22;5110711;28;19946;-48
2021/06/24 07:28:31;;;;;;;;;;;;;;;41.28;24.38;99757.06;5091856;28;19918;-49
2021/06/24 07:30:56;;;;;;;;;;;;;;;41.32;24.63;99758.63;5110923;28;19918;-49
2021/06/24 07:33:22;;;;;;;;;;;;;;;41.51;24.81;99762.03;5111013;28;20306;-47
2021/06/24 07:35:47;;;;;;;;;;;;;;;41.59;24.04;99750.38;5111063;28;20317;-48
2021/06/24 07:38:12;;;;;;;;;;;;;;;41.52;24.11;99741.28;5111011;28;20311;-49
2021/06/24 07:40:39;;;;;;;;;;;;;;;41.16;25.11;99742.38;5110855;28;19912;-48
2021/06/24 07:43:04;;;;;;;;;;;;;;;41.36;24.80;99739.06;5092507;28;19912;-50
2021/06/24 07:45:29;;;;;;;;;;;;;;;41.85;24.46;99738.94;5110913;28;19923;-50
2021/06/24 07:47:55;;;;;;;;;;;;;;;42.18;22.89;99732.56;5110539;28;20233;-50
2021/06/24 07:50:20;;;;;;;;;;;;;;;41.57;24.12;99729.69;5110251;28;19911;-49
2021/06/24 07:52:45;;;;;;;;;;;;;;;41.78;24.38;99732.25;5110477;28;19927;-49
2021/06/24 07:55:11;;;;;;;;;;;;;;;41.85;24.26;99738.94;5110346;28;19922;-51
2021/06/24 07:57:36;;;;;;;;;;;;;;;42.32;24.10;99739.97;5092003;28;19915;-50
2021/06/24 08:00:03;;;;;;;;;;;;;;;42.23;23.67;99742.47;5110440;28;19934;-49
2021/06/24 08:02:29;;;;;;;;;;;;;;;42.23;23.28;99736.88;5110661;28;19911;-50
2021/06/24 08:04:54;;;;;;;;;;;;;;;41.87;24.11;99739.31;5110464;28;19915;-48
2021/06/24 08:07:19;;;;;;;;;;;;;;;41.49;24.28;99731.75;5110401;28;19922;-48
2021/06/24 08:09:44;;;;;;;;;;;;;;;41.90;23.72;99736.50;5112756;28;19912;-48
2021/06/24 08:12:10;;;;;;;;;;;;;;;42.65;22.72;99739.53;5113885;28;19947;-49
2021/06/24 08:14:35;;;;;;;;;;;;;;;42.48;22.64;99738.56;5114865;28;20354;-53
2021/06/24 08:17:00;;;;;;;;;;;;;;;42.11;22.76;99737.47;5114378;28;20014;-52
2021/06/24 08:19:26;;;;;;;;;;;;;;;41.98;22.97;99731.59;5114022;28;20291;-48
2021/06/24 08:21:57;;;;;;;;;;;;;;;42.10;23.27;99738.66;5114043;28;20010;-49
2021/06/24 08:24:22;;;;;;;;;;;;;;;42.00;23.79;99745.94;5114200;28;19912;-49
2021/06/24 08:26:48;;;;;;;;;;;;;;;42.15;23.44;99744.59;5114221;28;19923;-50
2021/06/24 08:29:13;;;;;;;;;;;;;;;42.33;23.08;99741.56;5114042;28;19919;-50
2021/06/24 08:31:38;;;;;;;;;;;;;;;42.24;23.16;99732.91;5113596;28;20025;-49
2021/06/24 08:34:04;;;;;;;;;;;;;;;42.38;21.86;99732.72;5113643;28;19911;-48
2021/06/24 08:36:29;;;;;;;;;;;;;;;42.04;22.45;99737.53;5113171;28;20295;-47
2021/06/24 08:38:54;;;;;;;;;;;;;;;42.04;21.20;99721.59;5113317;28;19918;-48
2021/06/24 08:41:25;;;;;;;;;;;;;;;42.12;21.89;99731.47;5113477;28;20399;-50
2021/06/24 08:43:51;;;;;;;;;;;;;;;42.22;22.43;99728.94;5113669;28;19943;-48
2021/06/24 08:46:16;;;;;;;;;;;;;;;41.97;22.84;99722.44;5113271;28;19927;-49
2021/06/24 08:48:41;;;;;;;;;;;;;;;42.04;23.28;99724.41;5113775;28;19912;-50
2021/06/24 08:51:07;;;;;;;;;;;;;;;42.02;22.08;99717.59;5113523;28;19912;-47
2021/06/24 08:53:32;;;;;;;;;;;;;;;42.19;23.00;99730.56;5113756;28;19916;-47
2021/06/24 08:55:58;;;;;;;;;;;;;;;42.64;22.41;99723.97;5113297;28;19919;-49
2021/06/24 08:58:24;;;;;;;;;;;;;;;42.90;21.23;99717.59;5113091;28;19947;-50
2021/06/24 09:00:49;;;;;;;;;;;;;;;42.49;21.52;99720.59;5094936;28;20003;-48
2021/06/24 09:03:21;;;;;;;;;;;;;;;42.28;22.44;99716.88;5112927;28;20018;-48
2021/06/24 09:05:58;;;;;;;;;;;;;;;42.09;22.22;99723.13;5113148;28;19926;-48
2021/06/24 09:08:42;;;;;;;;;;;;;;;42.17;22.08;99722.63;5112329;28;19916;-50
2021/06/24 09:11:07;;;;;;;;;;;;;;;42.70;21.90;99720.25;5112699;28;19998;-49
2021/06/24 09:13:32;;;;;;;;;;;;;;;43.48;20.32;99716.59;5112795;28;20021;-49
2021/06/24 09:16:01;;;;;;;;;;;;;;;42.75;20.22;99705.81;5112830;28;19916;-48
2021/06/24 09:18:26;;;;;;;;;;;;;;;42.49;20.97;99701.03;5091016;28;19943;-49
2021/06/24 09:20:52;;;;;;;;;;;;;;;42.57;20.88;99700.50;5091283;28;19912;-51
2021/06/24 09:23:18;;;;;;;;;;;;;;;42.62;20.91;99699.22;5092664;28;19985;-49
2021/06/24 09:26:02;;;;;;;;;;;;;;;42.74;20.19;99695.03;5092238;28;19963;-49
2021/06/24 09:28:37;;;;;;;;;;;;;;;42.68;20.76;99700.31;5092734;28;19912;-50
2021/06/24 09:31:02;;;;;;;;;;;;;;;42.25;21.37;99691.75;5091992;28;19962;-50
2021/06/24 09:33:27;;;;;;;;;;;;;;;41.81;21.52;99691.50;5091791;28;19916;-48
2021/06/24 09:35:53;;;;;;;;;;;;;;;41.62;22.55;99687.34;5090627;28;20307;-48
2021/06/24 09:38:19;;;;;;;;;;;;;;;42.20;21.29;99690.25;5092249;28;19912;-49
2021/06/24 09:40:52;;;;;;;;;;;;;;;42.84;21.32;99687.69;5092275;28;19935;-51
2021/06/24 09:43:26;;;;;;;;;;;;;;;42.37;21.26;99683.59;5092106;28;19912;-49
2021/06/24 09:48:39;;;;;;;;;;;;;;;41.85;22.15;99683.91;5092167;28;19912;-49
2021/06/24 09:51:24;;;;;;;;;;;;;;;42.07;21.53;99678.03;5092317;28;19931;-48
2021/06/24 09:53:59;;;;;;;;;;;;;;;41.85;21.36;99683.91;5091939;28;19919;-48
2021/06/24 09:56:32;;;;;;;;;;;;;;;42.63;20.49;99680.44;5091491;28;19935;-49
2021/06/24 09:58:58;;;;;;;;;;;;;;;41.72;21.43;99674.50;5091617;28;20014;-49
2021/06/24 10:01:30;;;;;;;;;;;;;;;41.36;22.03;99663.69;5091893;28;19912;-47
2021/06/24 10:03:56;;;;;;;;;;;;;;;41.23;21.95;99669.78;5091738;28;20293;-48
2021/06/24 10:06:22;;;;;;;;;;;;;;;41.60;21.78;99667.41;5090523;28;19920;-51
2021/06/24 10:08:47;;;;;;;;;;;;;;;41.54;23.04;99664.28;5090631;28;20036;-51
2021/06/24 10:11:13;;;;;;;;;;;;;;;42.45;21.69;99659.09;5089920;28;19912;-49
2021/06/24 10:13:38;;;;;;;;;;;;;;;42.08;22.77;99660.88;5091728;28;19919;-51
2021/06/24 10:16:03;;;;;;;;;;;;;;;41.00;23.06;99655.66;5091121;28;19920;-50
2021/06/24 10:18:28;;;;;;;;;;;;;;;41.48;23.21;99654.00;5108825;28;20027;-48
2021/06/24 10:20:54;;;;;;;;;;;;;;;42.02;22.52;99658.91;5093428;28;19912;-50
2021/06/24 10:23:19;;;;;;;;;;;;;;;42.16;22.16;99661.56;5111305;28;20396;-50
2021/06/24 10:25:44;;;;;;;;;;;;;;;41.62;19.05;99648.25;5111507;28;19959;-50
2021/06/24 10:28:10;;;;;;;;;;;;;;;40.48;19.79;99647.28;5093184;28;20288;-48
2021/06/24 10:30:39;;;;;;;;;;;;;;;40.61;19.57;99646.41;5111475;28;19934;-49
2021/06/24 10:33:08;;;;;;;;;;;;;;;40.56;19.79;99640.47;5111281;28;20018;-47
2021/06/24 10:35:34;;;;;;;;;;;;;;;40.97;19.73;99643.31;5111584;28;19916;-50
2021/06/24 10:38:00;;;;;;;;;;;;;;;41.59;19.73;99640.69;5111415;28;19911;-46
2021/06/24 10:40:26;;;;;;;;;;;;;;;42.82;18.54;99634.16;5111423;28;20366;-48
2021/06/24 10:42:53;;;;;;;;;;;;;;;42.37;18.25;99635.28;5111263;28;19943;-48
2021/06/24 10:45:18;;;;;;;;;;;;;;;42.10;18.51;99627.69;5111423;28;19915;-48
2021/06/24 10:47:43;;;;;;;;;;;;;;;41.92;18.94;99629.91;5111035;28;20362;-48
2021/06/24 10:50:33;;;;;;;;;;;;;;;42.23;20.03;99632.69;5111317;28;19981;-47
2021/06/24 10:52:59;;;;;;;;;;;;;;;42.57;19.56;99627.00;5110967;28;19912;-47
2021/06/24 10:55:31;;;;;;;;;;;;;;;43.35;19.29;99624.03;5092959;28;19915;-48
2021/06/24 10:57:56;;;;;;;;;;;;;;;43.11;19.83;99628.88;5111013;28;20415;-48
2021/06/24 11:00:34;;;;;;;;;;;;;;;42.83;19.81;99619.75;5110997;28;19962;-48
2021/06/24 11:03:00;;;;;;;;;;;;;;;42.76;19.52;99614.28;5110894;28;19912;-48
2021/06/24 11:05:32;;;;;;;;;;;;;;;42.93;19.11;99618.00;5110403;28;19915;-49
2021/06/24 11:07:58;;;;;;;;;;;;;;;42.82;19.47;99617.38;5110902;28;19919;-49
2021/06/24 11:10:25;;;;;;;;;;;;;;;43.40;19.36;99606.72;5114859;28;19912;-47
2021/06/24 11:12:51;;;;;;;;;;;;;;;42.67;20.61;99614.03;5131356;27;20275;-48
2021/06/24 11:15:35;;;;;;;;;;;;;;;42.76;20.27;99611.47;5131765;27;19972;-48
2021/06/24 11:18:01;;;;;;;;;;;;;;;42.65;20.04;99614.47;5131416;28;19980;-49
2021/06/24 11:20:29;;;;;;;;;;;;;;;42.51;19.75;99618.28;5130038;28;19922;-49
2021/06/24 11:22:54;;;;;;;;;;;;;;;42.85;19.70;99617.31;5093046;28;19911;-50
2021/06/24 11:25:19;;;;;;;;;;;;;;;43.36;19.59;99620.03;5110486;28;19919;-50
2021/06/24 11:27:45;;;;;;;;;;;;;;;43.14;19.17;99626.00;5110819;28;20000;-50
2021/06/24 11:30:11;;;;;;;;;;;;;;;42.71;19.27;99620.38;5110926;28;19912;-50
2021/06/24 11:32:38;;;;;;;;;;;;;;;42.72;19.27;99613.56;5110952;28;20006;-49
2021/06/24 11:35:15;;;;;;;;;;;;;;;42.38;18.73;99609.72;5111016;28;20405;-50
2021/06/24 11:37:40;;;;;;;;;;;;;;;42.03;18.46;99599.81;5110930;28;19915;-50
2021/06/24 11:40:07;;;;;;;;;;;;;;;41.92;18.87;99599.97;5110923;28;20365;-50
2021/06/24 11:42:38;;;;;;;;;;;;;;;42.48;19.84;99595.97;5111001;28;19908;-48
2021/06/24 11:45:04;;;;;;;;;;;;;;;42.11;19.43;99600.53;5113994;28;19922;-52
2021/06/24 11:47:32;;;;;;;;;;;;;;;41.79;19.84;99593.38;5114997;28;19911;-49
2021/06/24 12:03:31;;;;;;;;;;;;;;;42.71;18.57;99579.22;5114978;28;19922;-48
2021/06/24 12:05:58;;;;;;;;;;;;;;;42.52;18.90;99580.75;5114497;28;20307;-50
2021/06/24 12:08:24;;;;;;;;;;;;;;;42.73;18.57;99582.38;5114543;28;19919;-51
2021/06/24 12:10:50;;;;;;;;;;;;;;;43.00;18.88;99570.31;5114581;28;19912;-48
2021/06/24 12:13:31;;;;;;;;;;;;;;;43.31;18.57;99573.69;5114296;28;19981;-48
2021/06/24 12:15:56;;;;;;;;;;;;;;;43.42;18.26;99567.88;5114522;28;19916;-48
2021/06/24 12:18:34;;;;;;;;;;;;;;;43.17;18.43;99571.19;5114536;28;19997;-49
2021/06/24 12:21:03;;;;;;;;;;;;;;;42.74;18.67;99572.75;5114004;28;19915;-48
2021/06/24 12:23:28;;;;;;;;;;;;;;;42.74;18.44;99563.56;5114337;28;19911;-50
2021/06/24 12:25:54;;;;;;;;;;;;;;;42.85;18.32;99552.19;5114051;28;19923;-50
2021/06/24 12:28:19;;;;;;;;;;;;;;;42.17;18.80;99552.16;5113856;28;19919;-50
2021/06/24 12:30:44;;;;;;;;;;;;;;;42.08;18.92;99551.06;5095880;28;19912;-50
2021/06/24 12:33:10;;;;;;;;;;;;;;;41.04;19.93;99550.41;5113575;28;20348;-49
2021/06/24 12:35:39;;;;;;;;;;;;;;;41.29;20.47;99546.56;5113889;28;20290;-47
2021/06/24 12:38:08;;;;;;;;;;;;;;;42.04;19.27;99545.56;5113623;28;19919;-49
2021/06/24 12:40:54;;;;;;;;;;;;;;;42.49;19.84;99544.44;5095793;28;19912;-49
2021/06/24 12:43:29;;;;;;;;;;;;;;;43.06;18.72;99540.59;5113327;28;19966;-48
2021/06/24 12:45:58;;;;;;;;;;;;;;;42.83;18.85;99540.66;5113847;28;19923;-49
2021/06/24 12:48:24;;;;;;;;;;;;;;;42.44;19.65;99545.72;5113843;28;20007;-48
2021/06/24 12:50:49;;;;;;;;;;;;;;;42.56;19.42;99550.72;5113283;28;20003;-48
2021/06/24 12:53:15;;;;;;;;;;;;;;;42.90;19.18;99543.34;5113277;28;20373;-49
2021/06/24 12:55:45;;;;;;;;;;;;;;;42.56;19.65;99531.13;5112992;28;19916;-48
2021/06/24 12:58:14;;;;;;;;;;;;;;;43.39;19.02;99540.75;5094789;28;19915;-49
2021/06/24 13:00:48;;;;;;;;;;;;;;;43.05;19.52;99544.63;5113330;28;20040;-49